KQA100T HKJK-HUEN
Flight info
| Callsign | KQA100T |
|---|---|
| Flight time | 1h 5m |
| Altitude | 34000 |
| Route | ANTUK2D APKUB UQ293 IMPOG IMPOG1A |
| Aircraft | B738/M-SDE2E3FGHIRWXY/LB1 |
Departure
| Time | 2026-04-26 14:13 |
|---|---|
| Airport | Jomo Kenyatta International Airport (HKJK) |
Arrival
| Time | 2026-04-26 15:19 |
|---|---|
| Airport | Entebbe International Airport (HUEN) |
| Time | Latitude | Longitude | Altitude | Speed | Heading |
|---|---|---|---|---|---|
| 2026-04-26 13:33 | -1.33203 | 36.92401 | 5333 ft | 0 kts | 108° |
| 2026-04-26 13:58 | -1.33199 | 36.92383 | 5334 ft | 4 kts | 77° |
| 2026-04-26 13:58 | -1.33211 | 36.92360 | 5330 ft | 4 kts | 52° |
| 2026-04-26 13:58 | -1.33223 | 36.92343 | 5335 ft | 4 kts | 54° |
| 2026-04-26 13:58 | -1.33231 | 36.92336 | 5334 ft | 2 kts | 65° |
| 2026-04-26 13:59 | -1.33240 | 36.92315 | 5335 ft | 4 kts | 68° |
| 2026-04-26 13:59 | -1.33252 | 36.92291 | 5333 ft | 4 kts | 52° |
| 2026-04-26 13:59 | -1.33268 | 36.92279 | 5335 ft | 2 kts | 356° |
| 2026-04-26 14:00 | -1.33273 | 36.92280 | 5330 ft | 0 kts | 356° |
| 2026-04-26 14:05 | -1.33272 | 36.92279 | 5329 ft | 1 kts | 356° |
| 2026-04-26 14:05 | -1.33246 | 36.92278 | 5332 ft | 7 kts | 356° |
| 2026-04-26 14:05 | -1.33202 | 36.92263 | 5334 ft | 7 kts | 332° |
| 2026-04-26 14:05 | -1.33161 | 36.92241 | 5332 ft | 7 kts | 335° |
| 2026-04-26 14:06 | -1.33116 | 36.92226 | 5330 ft | 8 kts | 345° |
| 2026-04-26 14:06 | -1.33056 | 36.92217 | 5334 ft | 10 kts | 358° |
| 2026-04-26 14:06 | -1.32982 | 36.92224 | 5329 ft | 11 kts | 12° |
| 2026-04-26 14:06 | -1.32914 | 36.92249 | 5331 ft | 10 kts | 25° |
| 2026-04-26 14:07 | -1.32846 | 36.92243 | 5330 ft | 10 kts | 334° |
| 2026-04-26 14:07 | -1.32792 | 36.92202 | 5332 ft | 10 kts | 306° |
| 2026-04-26 14:07 | -1.32800 | 36.92134 | 5331 ft | 12 kts | 237° |
| 2026-04-26 14:07 | -1.32852 | 36.92062 | 5332 ft | 13 kts | 234° |
| 2026-04-26 14:08 | -1.32902 | 36.91992 | 5331 ft | 12 kts | 234° |
| 2026-04-26 14:08 | -1.32951 | 36.91923 | 5333 ft | 12 kts | 234° |
| 2026-04-26 14:08 | -1.32992 | 36.91853 | 5332 ft | 12 kts | 258° |
| 2026-04-26 14:08 | -1.32952 | 36.91791 | 5334 ft | 11 kts | 324° |
| 2026-04-26 14:09 | -1.32889 | 36.91746 | 5337 ft | 11 kts | 324° |
| 2026-04-26 14:09 | -1.32840 | 36.91710 | 5339 ft | 5 kts | 324° |
| 2026-04-26 14:09 | -1.32813 | 36.91690 | 5338 ft | 5 kts | 323° |
| 2026-04-26 14:09 | -1.32786 | 36.91671 | 5338 ft | 5 kts | 323° |
| 2026-04-26 14:10 | -1.32757 | 36.91656 | 5339 ft | 5 kts | 353° |
| 2026-04-26 14:10 | -1.32723 | 36.91678 | 5340 ft | 8 kts | 49° |
| 2026-04-26 14:10 | -1.32707 | 36.91699 | 5339 ft | 0 kts | 54° |
| 2026-04-26 14:12 | -1.32693 | 36.91719 | 5338 ft | 19 kts | 54° |
| 2026-04-26 14:12 | -1.32474 | 36.92022 | 5318 ft | 88 kts | 54° |
| 2026-04-26 14:12 | -1.31996 | 36.92682 | 5321 ft | 145 kts | 54° |
| 2026-04-26 14:13 | -1.30802 | 36.94277 | 5875 ft | 185 kts | 56° |
| 2026-04-26 14:13 | -1.30037 | 36.95291 | 6763 ft | 179 kts | 54° |
| 2026-04-26 14:13 | -1.29274 | 36.96273 | 7440 ft | 181 kts | 55° |
| 2026-04-26 14:14 | -1.28498 | 36.97331 | 7844 ft | 200 kts | 56° |
| 2026-04-26 14:14 | -1.27644 | 36.98519 | 7993 ft | 221 kts | 56° |
| 2026-04-26 14:14 | -1.26694 | 36.99824 | 8158 ft | 243 kts | 55° |
| 2026-04-26 14:14 | -1.25657 | 37.01237 | 8385 ft | 260 kts | 54° |
| 2026-04-26 14:15 | -1.24276 | 37.02415 | 8817 ft | 269 kts | 24° |
| 2026-04-26 14:15 | -1.22412 | 37.02682 | 9226 ft | 282 kts | 354° |
| 2026-04-26 14:15 | -1.20506 | 37.02031 | 9580 ft | 299 kts | 328° |
| 2026-04-26 14:15 | -1.18983 | 37.00615 | 10224 ft | 303 kts | 303° |
| 2026-04-26 14:16 | -1.18095 | 36.98663 | 10599 ft | 320 kts | 284° |
| 2026-04-26 14:16 | -1.17710 | 36.96407 | 10829 ft | 339 kts | 276° |
| 2026-04-26 14:16 | -1.17507 | 36.94028 | 11337 ft | 347 kts | 274° |
| 2026-04-26 14:16 | -1.17342 | 36.91613 | 11928 ft | 350 kts | 274° |
| 2026-04-26 14:17 | -1.17168 | 36.89186 | 12107 ft | 350 kts | 274° |
| 2026-04-26 14:17 | -1.16970 | 36.86798 | 12132 ft | 351 kts | 275° |
| 2026-04-26 14:17 | -1.16772 | 36.84364 | 12235 ft | 352 kts | 274° |
| 2026-04-26 14:17 | -1.16567 | 36.81921 | 12349 ft | 351 kts | 275° |
| 2026-04-26 14:18 | -1.16341 | 36.79503 | 12625 ft | 349 kts | 276° |
| 2026-04-26 14:18 | -1.16078 | 36.77062 | 12972 ft | 357 kts | 276° |
| 2026-04-26 14:18 | -1.15807 | 36.74577 | 13089 ft | 363 kts | 276° |
| 2026-04-26 14:18 | -1.15541 | 36.72073 | 13084 ft | 360 kts | 276° |
| 2026-04-26 14:19 | -1.15280 | 36.69601 | 13247 ft | 359 kts | 276° |
| 2026-04-26 14:19 | -1.15019 | 36.67084 | 13510 ft | 368 kts | 276° |
| 2026-04-26 14:19 | -1.14757 | 36.64539 | 14225 ft | 367 kts | 276° |
| 2026-04-26 14:19 | -1.14497 | 36.62006 | 14878 ft | 367 kts | 276° |
| 2026-04-26 14:20 | -1.14235 | 36.59458 | 15434 ft | 370 kts | 276° |
| 2026-04-26 14:20 | -1.13970 | 36.56883 | 15967 ft | 374 kts | 276° |
| 2026-04-26 14:20 | -1.13703 | 36.54289 | 16512 ft | 377 kts | 276° |
| 2026-04-26 14:20 | -1.13433 | 36.51674 | 17063 ft | 380 kts | 276° |
| 2026-04-26 14:21 | -1.13161 | 36.49032 | 17599 ft | 384 kts | 276° |
| 2026-04-26 14:21 | -1.12845 | 36.46378 | 18123 ft | 387 kts | 281° |
| 2026-04-26 14:21 | -1.12093 | 36.43792 | 18589 ft | 389 kts | 291° |
| 2026-04-26 14:21 | -1.11121 | 36.41261 | 19047 ft | 392 kts | 292° |
| 2026-04-26 14:22 | -1.10111 | 36.38723 | 19525 ft | 395 kts | 292° |
| 2026-04-26 14:22 | -1.09083 | 36.36157 | 20011 ft | 399 kts | 292° |
| 2026-04-26 14:22 | -1.08057 | 36.33575 | 20482 ft | 401 kts | 292° |
| 2026-04-26 14:22 | -1.07033 | 36.30976 | 20931 ft | 403 kts | 292° |
| 2026-04-26 14:23 | -1.06009 | 36.28356 | 21360 ft | 406 kts | 292° |
| 2026-04-26 14:23 | -1.04984 | 36.25719 | 21782 ft | 408 kts | 292° |
| 2026-04-26 14:23 | -1.03956 | 36.23065 | 22203 ft | 411 kts | 292° |
| 2026-04-26 14:23 | -1.02922 | 36.20391 | 22607 ft | 414 kts | 292° |
| 2026-04-26 14:24 | -1.01883 | 36.17701 | 23010 ft | 416 kts | 292° |
| 2026-04-26 14:24 | -1.00851 | 36.15028 | 23404 ft | 419 kts | 292° |
| 2026-04-26 14:24 | -0.99788 | 36.12273 | 23782 ft | 421 kts | 292° |
| 2026-04-26 14:24 | -0.98743 | 36.09565 | 24092 ft | 424 kts | 292° |
| 2026-04-26 14:25 | -0.97681 | 36.06814 | 24414 ft | 426 kts | 292° |
| 2026-04-26 14:25 | -0.96614 | 36.04052 | 24732 ft | 427 kts | 292° |
| 2026-04-26 14:25 | -0.95541 | 36.01272 | 25064 ft | 429 kts | 292° |
| 2026-04-26 14:25 | -0.94467 | 35.98492 | 25447 ft | 429 kts | 292° |
| 2026-04-26 14:26 | -0.93397 | 35.95721 | 25899 ft | 427 kts | 292° |
| 2026-04-26 14:26 | -0.92331 | 35.92960 | 26359 ft | 425 kts | 292° |
| 2026-04-26 14:26 | -0.91270 | 35.90212 | 26779 ft | 424 kts | 292° |
| 2026-04-26 14:26 | -0.90208 | 35.87462 | 27194 ft | 424 kts | 292° |
| 2026-04-26 14:27 | -0.89148 | 35.84719 | 27629 ft | 423 kts | 292° |
| 2026-04-26 14:27 | -0.88091 | 35.81984 | 28050 ft | 422 kts | 292° |
| 2026-04-26 14:27 | -0.87029 | 35.79234 | 28096 ft | 426 kts | 292° |
| 2026-04-26 14:28 | -0.84890 | 35.73697 | 28145 ft | 432 kts | 292° |
| 2026-04-26 14:28 | -0.83799 | 35.70875 | 28262 ft | 438 kts | 292° |
| 2026-04-26 14:28 | -0.82699 | 35.68028 | 28590 ft | 439 kts | 292° |
| 2026-04-26 14:28 | -0.81601 | 35.65188 | 29032 ft | 437 kts | 292° |
| 2026-04-26 14:29 | -0.80512 | 35.62365 | 29516 ft | 434 kts | 292° |
| 2026-04-26 14:29 | -0.79428 | 35.59559 | 29729 ft | 436 kts | 292° |
| 2026-04-26 14:29 | -0.78326 | 35.56708 | 29667 ft | 440 kts | 292° |
| 2026-04-26 14:29 | -0.77224 | 35.53856 | 29929 ft | 441 kts | 292° |
| 2026-04-26 14:30 | -0.76125 | 35.51010 | 30394 ft | 436 kts | 292° |
| 2026-04-26 14:30 | -0.75052 | 35.48233 | 30834 ft | 432 kts | 292° |
| 2026-04-26 14:30 | -0.73975 | 35.45444 | 31261 ft | 429 kts | 292° |
| 2026-04-26 14:30 | -0.72902 | 35.42667 | 31623 ft | 428 kts | 292° |
| 2026-04-26 14:31 | -0.71832 | 35.39898 | 31917 ft | 428 kts | 292° |
| 2026-04-26 14:31 | -0.70758 | 35.37120 | 32065 ft | 431 kts | 292° |
| 2026-04-26 14:31 | -0.69673 | 35.34314 | 32049 ft | 434 kts | 292° |
| 2026-04-26 14:32 | -0.67508 | 35.28711 | 32036 ft | 429 kts | 292° |
| 2026-04-26 14:32 | -0.65373 | 35.23185 | 32051 ft | 427 kts | 292° |
| 2026-04-26 14:33 | -0.63249 | 35.17687 | 32027 ft | 420 kts | 292° |
| 2026-04-26 14:33 | -0.61159 | 35.12278 | 32026 ft | 417 kts | 292° |
| 2026-04-26 14:34 | -0.59067 | 35.06868 | 32027 ft | 418 kts | 292° |
| 2026-04-26 14:34 | -0.56970 | 35.01442 | 32017 ft | 419 kts | 292° |
| 2026-04-26 14:35 | -0.54865 | 34.95997 | 31339 ft | 424 kts | 292° |
| 2026-04-26 14:35 | -0.53810 | 34.93267 | 30932 ft | 422 kts | 292° |
| 2026-04-26 14:35 | -0.52753 | 34.90534 | 30565 ft | 419 kts | 292° |
| 2026-04-26 14:35 | -0.51704 | 34.87819 | 30150 ft | 419 kts | 292° |
| 2026-04-26 14:36 | -0.50660 | 34.85116 | 29742 ft | 416 kts | 292° |
| 2026-04-26 14:36 | -0.49622 | 34.82431 | 29312 ft | 413 kts | 292° |
| 2026-04-26 14:36 | -0.48591 | 34.79763 | 28895 ft | 410 kts | 292° |
| 2026-04-26 14:36 | -0.47566 | 34.77112 | 28490 ft | 407 kts | 292° |
| 2026-04-26 14:37 | -0.46551 | 34.74484 | 28094 ft | 404 kts | 292° |
| 2026-04-26 14:37 | -0.45541 | 34.71873 | 27712 ft | 401 kts | 292° |
| 2026-04-26 14:37 | -0.44538 | 34.69278 | 27316 ft | 399 kts | 292° |
| 2026-04-26 14:37 | -0.43543 | 34.66703 | 26935 ft | 396 kts | 292° |
| 2026-04-26 14:38 | -0.42553 | 34.64142 | 26553 ft | 394 kts | 292° |
| 2026-04-26 14:38 | -0.41568 | 34.61595 | 26174 ft | 392 kts | 292° |
| 2026-04-26 14:38 | -0.40588 | 34.59059 | 25789 ft | 390 kts | 292° |
| 2026-04-26 14:38 | -0.39939 | 34.57382 | 25523 ft | 390 kts | 292° |
| 2026-04-26 14:39 | -0.38637 | 34.54014 | 25040 ft | 387 kts | 292° |
| 2026-04-26 14:39 | -0.37679 | 34.51535 | 24968 ft | 377 kts | 292° |
| 2026-04-26 14:39 | -0.36758 | 34.49150 | 24941 ft | 371 kts | 292° |
| 2026-04-26 14:39 | -0.35826 | 34.46741 | 24953 ft | 374 kts | 292° |
| 2026-04-26 14:40 | -0.34881 | 34.44297 | 24952 ft | 380 kts | 292° |
| 2026-04-26 14:40 | -0.33927 | 34.41831 | 24944 ft | 381 kts | 292° |
| 2026-04-26 14:40 | -0.32975 | 34.39369 | 24934 ft | 379 kts | 292° |
| 2026-04-26 14:40 | -0.32028 | 34.36919 | 24928 ft | 377 kts | 292° |
| 2026-04-26 14:41 | -0.31085 | 34.34478 | 24929 ft | 376 kts | 292° |
| 2026-04-26 14:41 | -0.30145 | 34.32047 | 24931 ft | 375 kts | 292° |
| 2026-04-26 14:41 | -0.29205 | 34.29615 | 24933 ft | 375 kts | 292° |
| 2026-04-26 14:41 | -0.28267 | 34.27189 | 24936 ft | 375 kts | 292° |
| 2026-04-26 14:42 | -0.27328 | 34.24761 | 24941 ft | 375 kts | 292° |
| 2026-04-26 14:42 | -0.26386 | 34.22325 | 24941 ft | 376 kts | 292° |
| 2026-04-26 14:42 | -0.25446 | 34.19892 | 24942 ft | 377 kts | 292° |
| 2026-04-26 14:42 | -0.24501 | 34.17448 | 24944 ft | 378 kts | 292° |
| 2026-04-26 14:43 | -0.23553 | 34.14996 | 24940 ft | 379 kts | 292° |
| 2026-04-26 14:43 | -0.22604 | 34.12541 | 24945 ft | 380 kts | 292° |
| 2026-04-26 14:43 | -0.21651 | 34.10076 | 24946 ft | 380 kts | 292° |
| 2026-04-26 14:43 | -0.20698 | 34.07612 | 24940 ft | 381 kts | 292° |
| 2026-04-26 14:44 | -0.19744 | 34.05143 | 24939 ft | 381 kts | 292° |
| 2026-04-26 14:44 | -0.18789 | 34.02673 | 24938 ft | 381 kts | 292° |
| 2026-04-26 14:44 | -0.17835 | 34.00204 | 24940 ft | 381 kts | 292° |
| 2026-04-26 14:44 | -0.16879 | 33.97739 | 24939 ft | 380 kts | 293° |
| 2026-04-26 14:45 | -0.15871 | 33.95300 | 24936 ft | 379 kts | 294° |
| 2026-04-26 14:45 | -0.15185 | 33.93700 | 24938 ft | 379 kts | 294° |
| 2026-04-26 14:45 | -0.13795 | 33.90496 | 24768 ft | 381 kts | 294° |
| 2026-04-26 14:45 | -0.12741 | 33.88068 | 24545 ft | 380 kts | 294° |
| 2026-04-26 14:46 | -0.11701 | 33.85659 | 24319 ft | 376 kts | 294° |
| 2026-04-26 14:46 | -0.10675 | 33.83273 | 24110 ft | 372 kts | 294° |
| 2026-04-26 14:46 | -0.09659 | 33.80903 | 23889 ft | 370 kts | 294° |
| 2026-04-26 14:46 | -0.08648 | 33.78541 | 23670 ft | 368 kts | 294° |
| 2026-04-26 14:47 | -0.07644 | 33.76195 | 23450 ft | 366 kts | 294° |
| 2026-04-26 14:47 | -0.06646 | 33.73860 | 23188 ft | 365 kts | 294° |
| 2026-04-26 14:47 | -0.05649 | 33.71530 | 22933 ft | 364 kts | 294° |
| 2026-04-26 14:47 | -0.04655 | 33.69206 | 22682 ft | 363 kts | 294° |
| 2026-04-26 14:48 | -0.03664 | 33.66886 | 22434 ft | 363 kts | 294° |
| 2026-04-26 14:48 | -0.02674 | 33.64572 | 22185 ft | 362 kts | 294° |
| 2026-04-26 14:48 | -0.01685 | 33.62259 | 21934 ft | 362 kts | 294° |
| 2026-04-26 14:48 | -0.00698 | 33.59949 | 21698 ft | 361 kts | 294° |
| 2026-04-26 14:49 | 0.00287 | 33.57646 | 21450 ft | 361 kts | 294° |
| 2026-04-26 14:49 | 0.01273 | 33.55341 | 21216 ft | 360 kts | 294° |
| 2026-04-26 14:49 | 0.02257 | 33.53039 | 20975 ft | 360 kts | 294° |
| 2026-04-26 14:49 | 0.03198 | 33.50763 | 20741 ft | 359 kts | 292° |
| 2026-04-26 14:50 | 0.04060 | 33.48429 | 20508 ft | 358 kts | 290° |
| 2026-04-26 14:50 | 0.04885 | 33.46088 | 20274 ft | 357 kts | 290° |
| 2026-04-26 14:50 | 0.05701 | 33.43750 | 20040 ft | 356 kts | 290° |
| 2026-04-26 14:50 | 0.06515 | 33.41423 | 19807 ft | 354 kts | 290° |
| 2026-04-26 14:51 | 0.07333 | 33.39103 | 19573 ft | 353 kts | 290° |
| 2026-04-26 14:51 | 0.08149 | 33.36798 | 19356 ft | 352 kts | 290° |
| 2026-04-26 14:51 | 0.08967 | 33.34500 | 19134 ft | 350 kts | 290° |
| 2026-04-26 14:51 | 0.09784 | 33.32209 | 18909 ft | 349 kts | 290° |
| 2026-04-26 14:52 | 0.10598 | 33.29928 | 18683 ft | 348 kts | 290° |
| 2026-04-26 14:52 | 0.11411 | 33.27655 | 18467 ft | 347 kts | 290° |
| 2026-04-26 14:52 | 0.12218 | 33.25397 | 18244 ft | 345 kts | 290° |
| 2026-04-26 14:52 | 0.13025 | 33.23141 | 17992 ft | 344 kts | 290° |
| 2026-04-26 14:53 | 0.13826 | 33.20900 | 17741 ft | 342 kts | 290° |
| 2026-04-26 14:53 | 0.14626 | 33.18663 | 17493 ft | 341 kts | 290° |
| 2026-04-26 14:53 | 0.15422 | 33.16439 | 17240 ft | 339 kts | 290° |
| 2026-04-26 14:53 | 0.16213 | 33.14226 | 16989 ft | 338 kts | 290° |
| 2026-04-26 14:54 | 0.17001 | 33.12022 | 16748 ft | 336 kts | 290° |
| 2026-04-26 14:54 | 0.17783 | 33.09838 | 16500 ft | 332 kts | 290° |
| 2026-04-26 14:54 | 0.18557 | 33.07672 | 16193 ft | 330 kts | 290° |
| 2026-04-26 14:54 | 0.19329 | 33.05514 | 15882 ft | 329 kts | 290° |
| 2026-04-26 14:55 | 0.20096 | 33.03368 | 15565 ft | 328 kts | 290° |
| 2026-04-26 14:55 | 0.20862 | 33.01227 | 15252 ft | 327 kts | 290° |
| 2026-04-26 14:55 | 0.21626 | 32.99090 | 14942 ft | 326 kts | 290° |
| 2026-04-26 14:55 | 0.22388 | 32.96959 | 14612 ft | 326 kts | 290° |
| 2026-04-26 14:56 | 0.23149 | 32.94831 | 14296 ft | 325 kts | 290° |
| 2026-04-26 14:56 | 0.23900 | 32.92731 | 13972 ft | 325 kts | 290° |
| 2026-04-26 14:56 | 0.24661 | 32.90604 | 13635 ft | 325 kts | 290° |
| 2026-04-26 14:56 | 0.25421 | 32.88477 | 13286 ft | 324 kts | 290° |
| 2026-04-26 14:57 | 0.26178 | 32.86360 | 12967 ft | 323 kts | 289° |
| 2026-04-26 14:57 | 0.26931 | 32.84254 | 12629 ft | 321 kts | 290° |
| 2026-04-26 14:57 | 0.27682 | 32.82155 | 12323 ft | 320 kts | 289° |
| 2026-04-26 14:57 | 0.28427 | 32.80069 | 12013 ft | 318 kts | 289° |
| 2026-04-26 14:58 | 0.29170 | 32.77993 | 11698 ft | 317 kts | 289° |
| 2026-04-26 14:58 | 0.29852 | 32.75911 | 11384 ft | 315 kts | 281° |
| 2026-04-26 14:58 | 0.29881 | 32.73740 | 11105 ft | 312 kts | 262° |
| 2026-04-26 14:58 | 0.29584 | 32.71606 | 10813 ft | 310 kts | 261° |
| 2026-04-26 14:59 | 0.29262 | 32.69485 | 10515 ft | 308 kts | 261° |
| 2026-04-26 14:59 | 0.28943 | 32.67374 | 10234 ft | 306 kts | 261° |
| 2026-04-26 14:59 | 0.28637 | 32.65296 | 10084 ft | 299 kts | 261° |
| 2026-04-26 14:59 | 0.28440 | 32.63935 | 9894 ft | 299 kts | 261° |
| 2026-04-26 15:00 | 0.28048 | 32.61189 | 9466 ft | 297 kts | 261° |
| 2026-04-26 15:00 | 0.27761 | 32.59155 | 9166 ft | 295 kts | 261° |
| 2026-04-26 15:00 | 0.27476 | 32.57128 | 8872 ft | 293 kts | 261° |
| 2026-04-26 15:00 | 0.27193 | 32.55116 | 8577 ft | 292 kts | 261° |
| 2026-04-26 15:01 | 0.26911 | 32.53113 | 8286 ft | 290 kts | 261° |
| 2026-04-26 15:01 | 0.26631 | 32.51123 | 8069 ft | 286 kts | 261° |
| 2026-04-26 15:01 | 0.26359 | 32.49184 | 7949 ft | 278 kts | 261° |
| 2026-04-26 15:01 | 0.26093 | 32.47296 | 7833 ft | 271 kts | 261° |
| 2026-04-26 15:02 | 0.25834 | 32.45457 | 7710 ft | 264 kts | 261° |
| 2026-04-26 15:02 | 0.25578 | 32.43666 | 7559 ft | 258 kts | 258° |
| 2026-04-26 15:02 | 0.24857 | 32.42062 | 7268 ft | 254 kts | 225° |
| 2026-04-26 15:02 | 0.23368 | 32.41208 | 7023 ft | 248 kts | 188° |
| 2026-04-26 15:03 | 0.21666 | 32.41284 | 6814 ft | 245 kts | 171° |
| 2026-04-26 15:03 | 0.19974 | 32.41558 | 6520 ft | 248 kts | 171° |
| 2026-04-26 15:03 | 0.18269 | 32.41841 | 6243 ft | 248 kts | 172° |
| 2026-04-26 15:03 | 0.16555 | 32.42092 | 5930 ft | 250 kts | 172° |
| 2026-04-26 15:04 | 0.14825 | 32.42330 | 5655 ft | 250 kts | 172° |
| 2026-04-26 15:04 | 0.13091 | 32.42569 | 5286 ft | 250 kts | 172° |
| 2026-04-26 15:04 | 0.11400 | 32.42805 | 4967 ft | 241 kts | 172° |
| 2026-04-26 15:04 | 0.09799 | 32.43030 | 4689 ft | 229 kts | 172° |
| 2026-04-26 15:05 | 0.08238 | 32.43248 | 4341 ft | 219 kts | 172° |
| 2026-04-26 15:05 | 0.07755 | 32.43315 | 4300 ft | 213 kts | 173° |
| 2026-04-26 15:05 | 0.05530 | 32.43589 | 4470 ft | 189 kts | 173° |
| 2026-04-26 15:05 | 0.04175 | 32.43759 | 4698 ft | 205 kts | 173° |
| 2026-04-26 15:06 | 0.02774 | 32.43948 | 5431 ft | 200 kts | 172° |
| 2026-04-26 15:06 | 0.01347 | 32.44053 | 5901 ft | 216 kts | 184° |
| 2026-04-26 15:06 | -0.00084 | 32.43589 | 5958 ft | 221 kts | 219° |
| 2026-04-26 15:06 | -0.00869 | 32.42304 | 5986 ft | 225 kts | 260° |
| 2026-04-26 15:07 | -0.00336 | 32.39636 | 5991 ft | 242 kts | 283° |
| 2026-04-26 15:07 | 0.00230 | 32.38058 | 5998 ft | 240 kts | 291° |
| 2026-04-26 15:07 | 0.00879 | 32.36530 | 5988 ft | 238 kts | 291° |
| 2026-04-26 15:08 | 0.01503 | 32.35023 | 5963 ft | 238 kts | 290° |
| 2026-04-26 15:08 | 0.02113 | 32.33483 | 5976 ft | 238 kts | 290° |
| 2026-04-26 15:08 | 0.02723 | 32.31958 | 5948 ft | 236 kts | 290° |
| 2026-04-26 15:08 | 0.03393 | 32.30469 | 5905 ft | 237 kts | 303° |
| 2026-04-26 15:09 | 0.04613 | 32.29353 | 5874 ft | 241 kts | 333° |
| 2026-04-26 15:09 | 0.06209 | 32.28938 | 5889 ft | 237 kts | 354° |
| 2026-04-26 15:09 | 0.07843 | 32.28799 | 5911 ft | 236 kts | 355° |
| 2026-04-26 15:09 | 0.09477 | 32.28689 | 5962 ft | 234 kts | 356° |
| 2026-04-26 15:10 | 0.11110 | 32.28553 | 5997 ft | 238 kts | 355° |
| 2026-04-26 15:10 | 0.12206 | 32.28461 | 5995 ft | 241 kts | 355° |
| 2026-04-26 15:10 | 0.14466 | 32.28209 | 5996 ft | 247 kts | 351° |
| 2026-04-26 15:10 | 0.16157 | 32.27931 | 5997 ft | 245 kts | 350° |
| 2026-04-26 15:11 | 0.17829 | 32.27656 | 6007 ft | 244 kts | 349° |
| 2026-04-26 15:11 | 0.19494 | 32.27324 | 5985 ft | 244 kts | 348° |
| 2026-04-26 15:11 | 0.21169 | 32.26975 | 5799 ft | 250 kts | 347° |
| 2026-04-26 15:11 | 0.22881 | 32.26707 | 5621 ft | 248 kts | 5° |
| 2026-04-26 15:12 | 0.24416 | 32.27325 | 5605 ft | 237 kts | 45° |
| 2026-04-26 15:12 | 0.25187 | 32.28720 | 5592 ft | 232 kts | 84° |
| 2026-04-26 15:12 | 0.25304 | 32.30332 | 5612 ft | 235 kts | 90° |
| 2026-04-26 15:12 | 0.25284 | 32.31971 | 5594 ft | 236 kts | 93° |
| 2026-04-26 15:13 | 0.25246 | 32.33575 | 5603 ft | 224 kts | 93° |
| 2026-04-26 15:13 | 0.25225 | 32.35089 | 5582 ft | 213 kts | 92° |
| 2026-04-26 15:13 | 0.25214 | 32.36569 | 5595 ft | 213 kts | 92° |
| 2026-04-26 15:13 | 0.25098 | 32.38022 | 5590 ft | 207 kts | 109° |
| 2026-04-26 15:14 | 0.24488 | 32.39301 | 5598 ft | 203 kts | 127° |
| 2026-04-26 15:14 | 0.23530 | 32.40327 | 5598 ft | 203 kts | 142° |
| 2026-04-26 15:14 | 0.22295 | 32.41008 | 5592 ft | 205 kts | 166° |
| 2026-04-26 15:14 | 0.20911 | 32.41362 | 5602 ft | 206 kts | 166° |
| 2026-04-26 15:15 | 0.18057 | 32.41882 | 5591 ft | 196 kts | 172° |
| 2026-04-26 15:15 | 0.16757 | 32.42062 | 5560 ft | 180 kts | 172° |
| 2026-04-26 15:15 | 0.15564 | 32.42228 | 5616 ft | 169 kts | 172° |
| 2026-04-26 15:16 | 0.14427 | 32.42384 | 5483 ft | 163 kts | 173° |
| 2026-04-26 15:16 | 0.13326 | 32.42537 | 5309 ft | 161 kts | 173° |
| 2026-04-26 15:16 | 0.12250 | 32.42687 | 5125 ft | 156 kts | 172° |
| 2026-04-26 15:16 | 0.11187 | 32.42836 | 4939 ft | 153 kts | 172° |
| 2026-04-26 15:17 | 0.10135 | 32.42988 | 4760 ft | 152 kts | 171° |
| 2026-04-26 15:17 | 0.09425 | 32.43102 | 4612 ft | 154 kts | 171° |
| 2026-04-26 15:17 | 0.07999 | 32.43283 | 4313 ft | 158 kts | 173° |
| 2026-04-26 15:17 | 0.06908 | 32.43437 | 4105 ft | 158 kts | 172° |
| 2026-04-26 15:18 | 0.05818 | 32.43587 | 3893 ft | 157 kts | 172° |
| 2026-04-26 15:18 | 0.04766 | 32.43730 | 3779 ft | 143 kts | 170° |
| 2026-04-26 15:18 | 0.03928 | 32.43849 | 3777 ft | 100 kts | 172° |
| 2026-04-26 15:18 | 0.03385 | 32.43925 | 3767 ft | 57 kts | 171° |
| 2026-04-26 15:19 | 0.03120 | 32.43961 | 3769 ft | 21 kts | 172° |
| 2026-04-26 15:19 | 0.02986 | 32.43990 | 3766 ft | 20 kts | 150° |
| 2026-04-26 15:19 | 0.02878 | 32.44067 | 3760 ft | 19 kts | 142° |
| 2026-04-26 15:19 | 0.02840 | 32.44165 | 3764 ft | 18 kts | 34° |
| 2026-04-26 15:20 | 0.02962 | 32.44156 | 3762 ft | 18 kts | 352° |
| 2026-04-26 15:20 | 0.03082 | 32.44139 | 3767 ft | 17 kts | 352° |
| 2026-04-26 15:20 | 0.03197 | 32.44124 | 3773 ft | 16 kts | 352° |
| 2026-04-26 15:20 | 0.03308 | 32.44109 | 3768 ft | 16 kts | 352° |
| 2026-04-26 15:21 | 0.03415 | 32.44093 | 3768 ft | 15 kts | 352° |
| 2026-04-26 15:21 | 0.03517 | 32.44079 | 3773 ft | 15 kts | 352° |
| 2026-04-26 15:21 | 0.03615 | 32.44065 | 3770 ft | 14 kts | 352° |
| 2026-04-26 15:21 | 0.03709 | 32.44052 | 3770 ft | 13 kts | 352° |
| 2026-04-26 15:22 | 0.03798 | 32.44040 | 3774 ft | 13 kts | 352° |
| 2026-04-26 15:22 | 0.03886 | 32.44028 | 3771 ft | 13 kts | 352° |
| 2026-04-26 15:22 | 0.03971 | 32.44016 | 3776 ft | 12 kts | 352° |
| 2026-04-26 15:22 | 0.04053 | 32.44006 | 3779 ft | 12 kts | 353° |
| 2026-04-26 15:23 | 0.04135 | 32.43998 | 3771 ft | 12 kts | 354° |
| 2026-04-26 15:23 | 0.04204 | 32.44021 | 3777 ft | 11 kts | 65° |
| 2026-04-26 15:23 | 0.04216 | 32.44096 | 3778 ft | 11 kts | 82° |
| 2026-04-26 15:23 | 0.04274 | 32.44134 | 3779 ft | 11 kts | 1° |
| 2026-04-26 15:24 | 0.04357 | 32.44124 | 3781 ft | 12 kts | 352° |
| 2026-04-26 15:24 | 0.04438 | 32.44136 | 3788 ft | 13 kts | 43° |
| 2026-04-26 15:24 | 0.04454 | 32.44176 | 3779 ft | 5 kts | 90° |
| 2026-04-26 15:24 | 0.04456 | 32.44196 | 3779 ft | 0 kts | 82° |